Time;durP1;ratioP1;P1;durP2;ratioP2;P2;SDS_P1;SDS_P2;PMS_P1;PMS_P2;Temp;Humidity;BMP_temperature;BMP_pressure;BME280_temperature;BME280_humidity;BME280_pressure;Samples;Min_cycle;Max_cycle;Signal;HPM_P1;HPM_P2
2021/12/03 00:01:32;;;;;;;4.82;2.40;;;15.00;47.70;;;;;;5080465;28;20088;-40
2021/12/03 00:03:58;;;;;;;4.15;2.13;;;15.00;47.80;;;;;;5080014;28;20028;-41
2021/12/03 00:06:24;;;;;;;4.43;2.10;;;15.00;47.60;;;;;;5063121;28;20024;-44
2021/12/03 00:08:50;;;;;;;3.22;2.00;;;15.00;47.80;;;;;;5079529;28;20048;-40
2021/12/03 00:11:15;;;;;;;4.68;2.00;;;15.00;47.50;;;;;;5062280;28;20044;-40
2021/12/03 00:13:41;;;;;;;4.82;2.08;;;14.90;48.10;;;;;;5079934;28;20074;-43
2021/12/03 00:16:07;;;;;;;3.92;2.13;;;15.00;47.60;;;;;;5079739;28;20013;-42
2021/12/03 00:18:33;;;;;;;4.35;2.20;;;15.00;47.60;;;;;;5079601;28;20039;-43
2021/12/03 00:21:01;;;;;;;4.53;2.00;;;14.90;47.50;;;;;;5080023;28;20383;-45
2021/12/03 00:23:28;;;;;;;4.10;1.90;;;15.00;47.60;;;;;;5079779;28;20070;-42
2021/12/03 00:26:00;;;;;;;3.95;1.95;;;14.90;47.70;;;;;;5080449;28;20016;-41
2021/12/03 00:28:29;;;;;;;4.07;2.20;;;14.90;47.70;;;;;;5080032;28;20024;-42
2021/12/03 00:30:55;;;;;;;4.25;2.30;;;14.90;47.60;;;;;;5079891;28;20064;-43
2021/12/03 00:33:22;;;;;;;4.13;1.95;;;14.90;47.60;;;;;;5080226;28;20043;-42
2021/12/03 00:35:48;;;;;;;3.17;1.98;;;14.90;47.50;;;;;;5062299;28;20031;-41
2021/12/03 00:38:16;;;;;;;3.75;1.83;;;14.90;47.50;;;;;;5079760;28;20020;-44
2021/12/03 00:40:41;;;;;;;3.72;1.88;;;14.90;47.40;;;;;;5061903;28;20024;-42
2021/12/03 00:43:07;;;;;;;4.70;1.98;;;14.90;47.50;;;;;;5079832;28;20020;-42
2021/12/03 00:45:33;;;;;;;3.90;1.80;;;14.90;47.50;;;;;;5079925;28;20021;-40
2021/12/03 00:47:59;;;;;;;4.72;2.40;;;14.90;47.50;;;;;;5063086;28;20387;-40
2021/12/03 00:50:26;;;;;;;3.72;2.03;;;14.90;47.50;;;;;;5080481;28;20023;-41
2021/12/03 00:52:51;;;;;;;5.53;2.17;;;14.90;47.50;;;;;;5082390;28;20013;-41
2021/12/03 00:55:18;;;;;;;5.47;2.70;;;14.90;47.40;;;;;;5083626;28;20441;-41
2021/12/03 00:57:44;;;;;;;3.45;1.90;;;14.90;47.40;;;;;;5081911;28;20008;-42
2021/12/03 01:00:12;;;;;;;4.47;2.25;;;14.90;47.40;;;;;;5063219;28;20386;-43
2021/12/03 01:02:39;;;;;;;5.78;2.47;;;14.90;47.30;;;;;;5081610;28;20025;-41
2021/12/03 01:05:05;;;;;;;4.47;2.28;;;14.90;47.30;;;;;;5063949;28;20028;-43
2021/12/03 01:07:31;;;;;;;4.20;2.00;;;14.90;47.40;;;;;;5081881;28;20045;-42
2021/12/03 01:09:58;;;;;;;3.90;2.10;;;14.90;47.30;;;;;;5081584;28;20434;-43
2021/12/03 01:12:24;;;;;;;5.45;2.22;;;14.90;47.30;;;;;;5081517;28;20066;-40
2021/12/03 01:14:50;;;;;;;4.82;2.13;;;14.90;47.40;;;;;;5081840;28;20017;-41
2021/12/03 01:17:16;;;;;;;4.75;2.15;;;14.90;47.20;;;;;;5080791;28;20041;-43
2021/12/03 01:19:43;;;;;;;5.72;1.90;;;14.90;47.20;;;;;;5080932;28;20493;-40
2021/12/03 01:22:09;;;;;;;5.03;2.22;;;14.90;47.20;;;;;;5081900;28;20459;-40
2021/12/03 01:24:39;;;;;;;5.57;2.28;;;14.90;47.40;;;;;;5082837;28;20028;-40
2021/12/03 01:27:05;;;;;;;;;;;14.90;47.30;;;;;;5080456;28;20042;-41
2021/12/03 01:29:32;;;;;;;2.92;2.03;;;14.80;47.20;;;;;;5061225;28;19909;-43
2021/12/03 01:31:58;;;;;;;3.33;1.83;;;14.90;47.80;;;;;;5080015;28;20028;-43
2021/12/03 01:34:24;;;;;;;4.38;2.50;;;14.90;47.30;;;;;;5080090;28;20020;-41
2021/12/03 01:36:50;;;;;;;4.53;2.25;;;14.90;47.20;;;;;;5079177;28;20024;-41
2021/12/03 01:39:17;;;;;;;3.67;1.88;;;14.90;47.20;;;;;;5079656;28;20027;-41
2021/12/03 01:41:43;;;;;;;4.47;1.90;;;14.90;47.20;;;;;;5078460;28;20008;-41
2021/12/03 01:44:09;;;;;;;4.88;1.92;;;14.80;47.20;;;;;;5078845;28;20028;-43
2021/12/03 01:46:35;;;;;;;4.10;2.05;;;14.80;47.20;;;;;;5078181;28;20024;-43
2021/12/03 01:49:01;;;;;;;3.35;2.00;;;14.80;47.20;;;;;;5078537;28;20028;-41
2021/12/03 01:51:28;;;;;;;3.35;1.92;;;14.80;47.20;;;;;;5079127;28;20017;-42
2021/12/03 01:53:54;;;;;;;4.95;1.83;;;14.80;47.20;;;;;;5079010;28;20013;-42
2021/12/03 01:56:21;;;;;;;4.90;2.22;;;14.90;47.20;;;;;;5078247;28;20012;-43
2021/12/03 01:58:48;;;;;;;3.67;1.88;;;14.90;47.20;;;;;;5078729;28;20031;-41
2021/12/03 02:01:15;;;;;;;4.80;2.10;;;14.80;47.20;;;;;;5078644;28;20039;-40
2021/12/03 02:03:42;;;;;;;4.60;2.22;;;14.80;47.30;;;;;;5078296;28;20024;-44
2021/12/03 02:06:09;;;;;;;4.60;1.92;;;14.80;47.20;;;;;;5077785;28;20051;-43
2021/12/03 02:08:35;;;;;;;5.25;2.10;;;14.80;47.20;;;;;;5078125;28;20115;-43
2021/12/03 02:11:04;;;;;;;4.22;2.10;;;14.80;47.20;;;;;;5077290;28;20478;-39
2021/12/03 02:13:30;;;;;;;3.53;1.85;;;14.80;47.10;;;;;;5078147;28;20058;-44
2021/12/03 02:15:57;;;;;;;4.35;1.80;;;14.90;47.10;;;;;;5078061;28;20021;-45
2021/12/03 02:18:23;;;;;;;4.68;2.17;;;14.90;47.10;;;;;;5077153;28;20145;-39
2021/12/03 02:20:50;;;;;;;3.67;1.88;;;14.80;47.00;;;;;;5077800;28;20017;-41
2021/12/03 02:23:17;;;;;;;4.57;2.10;;;14.80;46.90;;;;;;5077736;28;20024;-41
2021/12/03 02:25:43;;;;;;;4.32;1.80;;;14.80;47.00;;;;;;5077553;28;20096;-40
2021/12/03 02:28:10;;;;;;;3.88;2.10;;;14.90;47.00;;;;;;5076327;28;20024;-45
2021/12/03 02:30:35;;;;;;;5.57;2.38;;;14.80;47.00;;;;;;5060038;28;20024;-40
2021/12/03 02:33:01;;;;;;;4.70;2.00;;;14.80;47.10;;;;;;5077812;28;20368;-41
2021/12/03 02:35:30;;;;;;;5.13;2.30;;;14.80;47.10;;;;;;5077684;28;20360;-42
2021/12/03 02:37:56;;;;;;;4.82;1.95;;;14.80;47.20;;;;;;5077712;28;20020;-41
2021/12/03 02:40:22;;;;;;;4.60;2.05;;;14.80;47.60;;;;;;5060250;28;20008;-40
2021/12/03 02:42:48;;;;;;;2.50;1.73;;;14.80;47.00;;;;;;5081434;28;20478;-42
2021/12/03 02:45:15;;;;;;;5.18;2.40;;;14.80;47.00;;;;;;5081609;28;20086;-42
2021/12/03 02:47:41;;;;;;;3.80;2.10;;;14.80;47.00;;;;;;5082243;28;20043;-42
2021/12/03 02:50:08;;;;;;;4.82;2.33;;;14.80;47.00;;;;;;5081758;28;20044;-40
2021/12/03 02:52:34;;;;;;;4.82;2.00;;;14.80;47.00;;;;;;5081755;28;20012;-41
2021/12/03 02:55:01;;;;;;;5.47;2.30;;;14.80;47.50;;;;;;5080500;28;20128;-40
2021/12/03 02:57:27;;;;;;;4.32;1.70;;;14.80;47.00;;;;;;5080910;28;20044;-44
2021/12/03 02:59:54;;;;;;;5.65;2.00;;;14.80;47.10;;;;;;5081603;28;20097;-44
2021/12/03 03:02:20;;;;;;;5.60;2.20;;;14.80;47.00;;;;;;5081798;28;20017;-40
2021/12/03 03:04:46;;;;;;;5.82;2.60;;;14.80;47.10;;;;;;5062696;28;20524;-41
2021/12/03 03:07:13;;;;;;;4.25;2.10;;;14.80;47.20;;;;;;5079937;28;20040;-42
2021/12/03 03:09:43;;;;;;;4.60;2.13;;;14.80;47.00;;;;;;5079727;28;20024;-44
2021/12/03 03:12:12;;;;;;;4.55;2.17;;;14.80;47.00;;;;;;5080713;28;20066;-41
2021/12/03 03:14:45;;;;;;;4.65;2.00;;;14.80;46.90;;;;;;5080443;28;20029;-42
2021/12/03 03:17:11;;;;;;;5.05;2.30;;;14.80;47.00;;;;;;5080091;28;20016;-42
2021/12/03 03:19:37;;;;;;;7.00;2.30;;;14.70;46.90;;;;;;5062377;28;20024;-42
2021/12/03 03:22:05;;;;;;;5.18;2.28;;;14.70;46.90;;;;;;5079683;28;20407;-41
2021/12/03 03:24:31;;;;;;;4.45;1.90;;;14.70;46.90;;;;;;5079734;28;20043;-42
2021/12/03 03:26:58;;;;;;;4.60;2.25;;;14.80;46.90;;;;;;5079599;28;20048;-44
2021/12/03 03:29:24;;;;;;;5.50;2.33;;;14.70;46.90;;;;;;5079245;28;20509;-40
2021/12/03 03:31:50;;;;;;;6.10;2.00;;;14.70;47.00;;;;;;5079088;28;20093;-41
2021/12/03 03:34:16;;;;;;;4.30;1.77;;;14.70;46.90;;;;;;5045220;28;20457;-45
2021/12/03 03:36:42;;;;;;;5.30;2.25;;;14.70;47.10;;;;;;5078913;28;20013;-44
2021/12/03 03:39:10;;;;;;;5.68;2.22;;;14.70;46.90;;;;;;5079374;28;20012;-42
2021/12/03 03:41:36;;;;;;;6.35;2.60;;;14.80;47.00;;;;;;5078797;28;20013;-43
2021/12/03 03:44:02;;;;;;;4.70;2.42;;;14.70;46.90;;;;;;5078722;28;20074;-40
2021/12/03 03:46:28;;;;;;;4.40;2.17;;;14.70;46.90;;;;;;5078717;28;20391;-40
2021/12/03 03:48:55;;;;;;;7.07;2.78;;;14.70;46.80;;;;;;5078653;28;20471;-41
2021/12/03 03:51:24;;;;;;;4.68;2.08;;;14.70;46.70;;;;;;5079069;28;20064;-41
2021/12/03 03:53:49;;;;;;;4.63;2.05;;;14.70;46.80;;;;;;5077943;28;20013;-41
2021/12/03 03:56:15;;;;;;;4.45;2.10;;;14.70;47.00;;;;;;5078131;28;20070;-41
2021/12/03 03:58:42;;;;;;;4.80;2.13;;;14.70;47.00;;;;;;5079577;28;20021;-46
2021/12/03 04:01:09;;;;;;;6.93;2.47;;;14.60;46.90;;;;;;5079373;28;20031;-43
2021/12/03 04:03:36;;;;;;;4.35;2.13;;;14.70;46.90;;;;;;5078573;28;20024;-41
2021/12/03 04:06:02;;;;;;;5.22;2.35;;;14.60;46.80;;;;;;5078697;28;20025;-41
2021/12/03 04:08:31;;;;;;;5.03;2.30;;;14.70;46.70;;;;;;5077678;28;20046;-42
2021/12/03 04:10:57;;;;;;;6.40;2.28;;;14.60;46.80;;;;;;5060490;28;20023;-40
2021/12/03 04:13:24;;;;;;;4.97;2.25;;;14.70;46.60;;;;;;5060534;28;20386;-41
2021/12/03 04:15:50;;;;;;;7.20;2.80;;;14.70;46.70;;;;;;5078310;28;20062;-41
2021/12/03 04:18:16;;;;;;;6.03;2.25;;;14.70;46.80;;;;;;5078573;28;20017;-41
2021/12/03 04:20:42;;;;;;;7.13;2.35;;;14.60;46.70;;;;;;5078563;28;20024;-44
2021/12/03 04:23:08;;;;;;;4.85;2.00;;;14.60;46.80;;;;;;5077760;28;20502;-42
2021/12/03 04:25:34;;;;;;;5.50;1.90;;;14.60;46.70;;;;;;5077944;28;20149;-41
2021/12/03 04:28:01;;;;;;;5.93;2.40;;;14.60;46.70;;;;;;5078121;28;20490;-40
2021/12/03 04:30:28;;;;;;;6.82;2.33;;;14.70;46.70;;;;;;5078223;28;20114;-42
2021/12/03 04:32:55;;;;;;;5.30;2.38;;;14.60;46.70;;;;;;5078183;28;20478;-40
2021/12/03 04:35:21;;;;;;;5.35;2.05;;;14.60;46.70;;;;;;5077991;28;20017;-40
2021/12/03 04:37:48;;;;;;;5.47;2.00;;;14.60;46.80;;;;;;5043718;28;20038;-41
2021/12/03 04:40:14;;;;;;;7.13;2.40;;;14.60;46.80;;;;;;5078092;28;20021;-47
2021/12/03 04:42:49;;;;;;;4.68;1.90;;;14.60;46.80;;;;;;5061915;28;20123;-39
2021/12/03 04:45:18;;;;;;;5.15;2.20;;;14.60;46.80;;;;;;5081056;28;20115;-45
2021/12/03 04:47:44;;;;;;;4.63;1.92;;;14.60;46.70;;;;;;5081119;28;20035;-44
2021/12/03 04:50:10;;;;;;;5.75;2.20;;;14.70;46.70;;;;;;5061320;28;20016;-41
2021/12/03 04:52:36;;;;;;;5.32;2.05;;;14.70;46.40;;;;;;5076422;28;20474;-41
2021/12/03 04:55:02;;;;;;;4.93;2.10;;;14.70;46.40;;;;;;5077104;28;20118;-41
2021/12/03 04:57:28;;;;;;;4.72;2.00;;;14.70;46.30;;;;;;5042782;28;20032;-45
2021/12/03 04:59:54;;;;;;;4.65;1.92;;;14.70;46.10;;;;;;5077544;28;20375;-42
2021/12/03 05:02:21;;;;;;;4.95;1.90;;;14.80;46.10;;;;;;5077032;28;20029;-39
2021/12/03 05:04:48;;;;;;;5.95;2.20;;;14.80;46.00;;;;;;5077318;28;20012;-47
2021/12/03 05:10:12;;;;;;;6.38;2.60;;;14.90;45.70;;;;;;5019556;28;20042;-43
2021/12/03 05:12:38;;;;;;;4.22;1.95;;;14.90;45.50;;;;;;5020984;28;20050;-42
2021/12/03 05:15:06;;;;;;;5.43;2.20;;;15.00;45.60;;;;;;5020536;28;20034;-40
2021/12/03 05:17:32;;;;;;;6.63;1.92;;;14.90;45.50;;;;;;5018428;28;20087;-39
2021/12/03 05:19:58;;;;;;;6.05;1.90;;;15.00;45.50;;;;;;5015011;28;20489;-41
2021/12/03 05:22:24;;;;;;;5.10;1.88;;;15.10;45.80;;;;;;5015255;28;20582;-40
2021/12/03 05:24:50;;;;;;;4.57;2.10;;;15.10;45.40;;;;;;5015781;28;20081;-43
2021/12/03 05:27:18;;;;;;;4.25;2.13;;;15.10;45.20;;;;;;4998775;28;20062;-40
2021/12/03 05:29:45;;;;;;;5.18;1.83;;;15.10;45.00;;;;;;5013932;28;20060;-40
2021/12/03 05:32:11;;;;;;;3.80;1.80;;;15.20;45.00;;;;;;5014216;28;20029;-41
2021/12/03 05:34:38;;;;;;;5.20;2.30;;;15.20;44.70;;;;;;5013779;28;20030;-41
2021/12/03 05:37:07;;;;;;;5.88;2.10;;;15.20;44.40;;;;;;5014365;28;20022;-40
2021/12/03 05:39:33;;;;;;;5.80;1.98;;;15.30;44.40;;;;;;5013896;28;20026;-41
2021/12/03 05:41:59;;;;;;;6.22;2.08;;;15.30;44.50;;;;;;5013295;28;20088;-41
2021/12/03 05:44:26;;;;;;;7.15;2.40;;;15.30;44.40;;;;;;5013498;28;20025;-40
2021/12/03 05:46:53;;;;;;;5.05;1.98;;;15.30;44.40;;;;;;5072567;28;20083;-40
2021/12/03 05:49:19;;;;;;;5.45;2.33;;;15.30;44.30;;;;;;5058313;28;20478;-43
2021/12/03 05:51:45;;;;;;;5.35;2.13;;;15.30;44.20;;;;;;5079143;28;20005;-41
2021/12/03 05:54:11;;;;;;;5.18;1.92;;;15.40;44.20;;;;;;5080736;28;20028;-43
2021/12/03 05:56:37;;;;;;;3.83;1.80;;;15.40;44.10;;;;;;5081610;28;20055;-41
2021/12/03 05:59:03;;;;;;;4.25;1.75;;;15.40;44.00;;;;;;5060880;28;20021;-42
2021/12/03 06:01:29;;;;;;;5.15;1.80;;;15.40;43.90;;;;;;5074489;28;20048;-43
2021/12/03 06:03:55;;;;;;;6.30;2.15;;;15.50;43.90;;;;;;5057732;28;20032;-42
2021/12/03 06:06:21;;;;;;;5.93;2.08;;;15.50;43.80;;;;;;5058267;28;20013;-40
2021/12/03 06:08:48;;;;;;;4.45;1.90;;;15.60;43.80;;;;;;5075948;28;20529;-43
2021/12/03 06:11:14;;;;;;;7.10;2.03;;;15.60;43.70;;;;;;5076932;28;20021;-42
2021/12/03 06:13:40;;;;;;;4.95;1.70;;;15.60;43.60;;;;;;5076687;28;20024;-41
2021/12/03 06:16:10;;;;;;;4.65;1.95;;;15.70;43.60;;;;;;5076217;28;20028;-42
2021/12/03 06:18:36;;;;;;;5.05;2.10;;;15.70;43.60;;;;;;5076537;28;20102;-40
2021/12/03 06:21:04;;;;;;;4.35;1.80;;;15.70;43.50;;;;;;5075500;28;20032;-39
2021/12/03 06:23:30;;;;;;;5.68;2.40;;;15.80;43.50;;;;;;5074849;28;20017;-40
2021/12/03 06:25:57;;;;;;;4.65;2.00;;;15.80;43.40;;;;;;5057234;28;20031;-40
2021/12/03 06:28:24;;;;;;;4.30;1.67;;;15.80;43.40;;;;;;5075293;28;20025;-41
2021/12/03 06:30:50;;;;;;;6.13;2.10;;;15.80;43.40;;;;;;5075602;28;20070;-40
2021/12/03 06:33:18;;;;;;;7.78;2.15;;;15.90;43.40;;;;;;5077418;28;20048;-41
2021/12/03 06:35:45;;;;;;;5.45;2.13;;;15.90;43.30;;;;;;5077444;28;20020;-45
2021/12/03 06:38:11;;;;;;;4.45;2.00;;;15.90;43.30;;;;;;5059031;28;20042;-40
2021/12/03 06:40:37;;;;;;;5.95;2.03;;;16.00;43.30;;;;;;5043934;28;20047;-40
2021/12/03 06:43:03;;;;;;;5.88;1.90;;;16.00;43.30;;;;;;5076923;28;20478;-41
2021/12/03 06:45:29;;;;;;;5.75;2.13;;;16.00;43.30;;;;;;5077152;28;20016;-40
2021/12/03 06:47:55;;;;;;;7.68;2.20;;;16.00;43.30;;;;;;5059575;28;20031;-40
2021/12/03 06:50:23;;;;;;;5.28;2.15;;;16.00;43.30;;;;;;5075460;28;20029;-40
2021/12/03 06:52:57;;;;;;;3.30;1.85;;;16.00;43.20;;;;;;5075733;28;20066;-39
2021/12/03 06:55:22;;;;;;;4.40;2.20;;;16.10;43.20;;;;;;5074304;28;20158;-39
2021/12/03 06:57:49;;;;;;;5.57;2.05;;;16.10;43.20;;;;;;5056119;28;20029;-43
2021/12/03 07:00:15;;;;;;;5.13;1.92;;;16.20;43.20;;;;;;5073267;28;20360;-39
2021/12/03 07:02:43;;;;;;;5.30;2.10;;;16.20;43.10;;;;;;5074321;28;20016;-40
2021/12/03 07:05:10;;;;;;;7.13;2.60;;;16.20;43.10;;;;;;5073843;28;20025;-40
2021/12/03 07:07:36;;;;;;;5.05;2.00;;;16.20;43.10;;;;;;5073055;28;20036;-41
2021/12/03 07:10:03;;;;;;;6.85;2.05;;;16.20;43.00;;;;;;5073401;28;20033;-39
2021/12/03 07:12:31;;;;;;;7.38;2.00;;;16.30;43.00;;;;;;5054980;28;20016;-39
2021/12/03 07:14:58;;;;;;;6.55;2.10;;;16.30;43.10;;;;;;5072635;28;20023;-40
2021/12/03 07:17:26;;;;;;;6.38;2.17;;;16.30;43.00;;;;;;5071756;28;20017;-39
2021/12/03 07:19:55;;;;;;;6.20;1.83;;;16.30;43.00;;;;;;5071901;28;20009;-39
2021/12/03 07:22:22;;;;;;;6.15;2.33;;;16.30;43.00;;;;;;5070770;28;20070;-39
2021/12/03 07:24:50;;;;;;;8.75;2.20;;;16.40;43.00;;;;;;5071502;28;20020;-39
2021/12/03 07:27:16;;;;;;;12.40;2.70;;;16.30;45.10;;;;;;5054252;28;20038;-38
2021/12/03 07:29:47;;;;;;;14.88;3.67;;;15.80;46.50;;;;;;5075548;28;20020;-39
2021/12/03 07:32:16;;;;;;;13.93;3.30;;;15.60;45.10;;;;;;5075290;28;20017;-39
2021/12/03 07:34:42;;;;;;;12.95;3.03;;;15.20;46.10;;;;;;5075404;28;20058;-38
2021/12/03 07:37:08;;;;;;;18.15;3.97;;;14.90;45.30;;;;;;5075630;28;20465;-40
2021/12/03 07:39:34;;;;;;;14.55;3.70;;;14.90;45.20;;;;;;5075428;28;20020;-38
2021/12/03 07:41:59;;;;;;;13.93;3.33;;;14.60;44.80;;;;;;5041004;28;20061;-40
2021/12/03 07:44:27;;;;;;;8.93;2.90;;;14.70;44.00;;;;;;5075571;28;20441;-37
2021/12/03 07:46:53;;;;;;;12.48;3.65;;;14.20;44.10;;;;;;5075272;28;20012;-39
2021/12/03 07:49:23;;;;;;;15.55;5.05;;;14.20;45.10;;;;;;5056629;28;20351;-37
2021/12/03 07:51:48;;;;;;;10.05;3.45;;;14.00;44.50;;;;;;5074890;28;20015;-38
2021/12/03 07:54:14;;;;;;;11.52;3.75;;;14.00;44.80;;;;;;5057480;28;20017;-37
2021/12/03 07:56:40;;;;;;;16.98;4.00;;;14.20;44.70;;;;;;5057321;28;20490;-37
2021/12/03 07:59:06;;;;;;;18.27;5.07;;;14.50;44.70;;;;;;5074831;28;20497;-42
2021/12/03 08:01:33;;;;;;;29.17;5.78;;;14.60;43.60;;;;;;5075337;28;20008;-37
2021/12/03 08:03:58;;;;;;;26.67;4.80;;;14.70;43.40;;;;;;5074753;28;20548;-38
2021/12/03 08:06:24;;;;;;;24.77;5.00;;;14.90;43.50;;;;;;5075223;28;20012;-37
2021/12/03 08:08:50;;;;;;;21.65;4.20;;;14.50;44.20;;;;;;5040360;28;20113;-40
2021/12/03 08:11:17;;;;;;;22.67;4.90;;;14.10;43.70;;;;;;5074355;28;20013;-37
2021/12/03 08:13:43;;;;;;;18.88;4.40;;;14.00;45.50;;;;;;5075154;28;20107;-38
2021/12/03 08:16:09;;;;;;;27.50;4.80;;;14.20;44.60;;;;;;5074810;28;20056;-38
2021/12/03 08:18:37;;;;;;;28.70;4.00;;;14.00;44.70;;;;;;5073158;28;20017;-38
2021/12/03 08:21:03;;;;;;;23.85;4.07;;;14.20;45.60;;;;;;5056750;28;20036;-38
2021/12/03 08:23:29;;;;;;;19.05;3.72;;;14.70;45.80;;;;;;5057314;28;20028;-40
2021/12/03 08:25:55;;;;;;;19.33;3.97;;;14.80;45.40;;;;;;5056474;28;20013;-38
2021/12/03 08:28:21;;;;;;;16.30;3.58;;;15.20;45.10;;;;;;5074272;28;20017;-40
2021/12/03 08:30:47;;;;;;;14.90;2.70;;;15.20;45.50;;;;;;5056283;28;20035;-39
2021/12/03 08:33:12;;;;;;;18.83;3.95;;;15.10;44.50;;;;;;5074285;28;20096;-39
2021/12/03 08:35:38;;;;;;;18.88;3.58;;;15.20;45.80;;;;;;5074010;28;20020;-39
2021/12/03 08:38:04;;;;;;;17.65;3.25;;;15.40;44.80;;;;;;5039514;28;20067;-39
2021/12/03 08:40:30;;;;;;;14.57;4.18;;;15.70;43.90;;;;;;5073568;28;20016;-38
2021/12/03 08:42:56;;;;;;;10.48;3.65;;;16.00;43.60;;;;;;5056265;28;20047;-39
2021/12/03 08:45:22;;;;;;;15.55;3.90;;;15.50;43.90;;;;;;5074324;28;20023;-38
2021/12/03 08:47:51;;;;;;;16.70;3.05;;;15.60;43.70;;;;;;5074269;28;20040;-38
2021/12/03 08:50:26;;;;;;;13.88;2.90;;;15.70;43.20;;;;;;5055860;28;20550;-39
2021/12/03 08:55:38;;;;;;;16.25;3.83;;;15.50;43.00;;;;;;5073512;28;20032;-40
2021/12/03 08:58:04;;;;;;;12.52;2.78;;;15.40;44.10;;;;;;5072859;28;20024;-39
2021/12/03 09:00:30;;;;;;;13.70;3.15;;;15.80;43.50;;;;;;5055168;28;20020;-38
2021/12/03 09:02:56;;;;;;;11.52;2.92;;;16.20;43.10;;;;;;5054589;28;20008;-39
2021/12/03 09:05:27;;;;;;;18.52;3.30;;;16.50;42.50;;;;;;5073608;28;20454;-39
2021/12/03 09:07:53;;;;;;;15.20;3.45;;;16.60;41.90;;;;;;5055981;28;20456;-39
2021/12/03 09:10:18;;;;;;;10.95;3.40;;;16.70;41.50;;;;;;5072790;28;20129;-39
2021/12/03 09:12:44;;;;;;;13.18;3.80;;;16.80;41.20;;;;;;5055484;28;20036;-39
2021/12/03 09:15:16;;;;;;;16.33;4.10;;;16.90;41.10;;;;;;5073937;28;20038;-39
2021/12/03 09:18:26;;;;;;;15.45;4.82;;;17.00;40.90;;;;;;5055432;28;20036;-39
2021/12/03 09:20:53;;;;;;;17.35;5.15;;;17.10;40.70;;;;;;5058972;28;20436;-38
2021/12/03 09:26:06;;;;;;;30.77;6.68;;;17.10;42.00;;;;;;5056275;28;20227;-38
2021/12/03 09:28:33;;;;;;;22.42;6.88;;;17.20;42.80;;;;;;5071828;28;20169;-38
2021/12/03 09:31:19;;;;;;;29.27;7.05;;;17.20;43.00;;;;;;5058038;28;20036;-40
2021/12/03 09:34:09;;;;;;;23.13;6.32;;;17.30;43.00;;;;;;5072368;28;20464;-38
2021/12/03 09:36:36;;;;;;;;;;;17.30;42.80;;;;;;5054553;28;20020;-37
2021/12/03 09:39:04;;;;;;;30.33;7.85;;;17.40;42.80;;;;;;5072420;28;19901;-37
2021/12/03 09:41:29;;;;;;;22.58;7.57;;;17.50;42.90;;;;;;5072332;28;20467;-38
2021/12/03 09:43:55;;;;;;;27.90;7.22;;;17.50;42.70;;;;;;5072581;28;20024;-38
2021/12/03 09:46:26;;;;;;;28.00;7.72;;;17.60;42.60;;;;;;5072430;28;20023;-37
2021/12/03 09:51:24;;;;;;;21.65;8.00;;;17.70;42.60;;;;;;5054767;28;20067;-37
2021/12/03 09:56:29;;;;;;;28.05;8.52;;;17.80;42.40;;;;;;5071409;28;20021;-38
2021/12/03 10:01:46;;;;;;;26.83;9.52;;;17.90;42.70;;;;;;5072659;28;20039;-38
2021/12/03 10:15:15;;;;;;;29.48;8.18;;;17.90;41.30;;;;;;5092475;28;20023;-37
2021/12/03 10:26:20;;;;;;;21.80;7.80;;;18.30;41.70;;;;;;5093006;28;20124;-38
2021/12/03 10:34:21;;;;;;;29.15;9.50;;;18.60;41.80;;;;;;5077067;28;20027;-46
2021/12/03 10:36:48;;;;;;;31.13;9.95;;;18.70;41.70;;;;;;5087377;28;20532;-37
2021/12/03 10:47:07;;;;;;;29.80;10.32;;;18.90;41.90;;;;;;5091994;28;20114;-36
2021/12/03 10:56:30;;;;;;;31.38;11.77;;;19.10;42.10;;;;;;5057187;28;20359;-41
2021/12/03 11:02:03;;;;;;;39.63;13.35;;;19.20;41.90;;;;;;5094246;28;20093;-42
2021/12/03 14:54:25;;;;;;;3.47;1.30;;;19.60;36.60;;;;;;5098265;28;20020;-36
2021/12/03 14:57:18;;;;;;;5.40;1.30;;;19.60;36.60;;;;;;5098854;28;20012;-37
2021/12/03 14:59:58;;;;;;;3.20;1.10;;;19.70;36.60;;;;;;5098293;28;20060;-38
2021/12/03 15:02:38;;;;;;;;;;;19.70;36.50;;;;;;5098867;28;20023;-37
2021/12/03 15:05:33;;;;;;;4.68;1.40;;;19.70;36.40;;;;;;5098334;28;19904;-36
2021/12/03 15:07:52;;;;;;;3.00;1.20;;;19.70;36.50;;;;;;5097512;28;20052;-37
2021/12/03 15:11:17;;;;;;;4.18;1.23;;;19.80;36.50;;;;;;5063347;28;20029;-37
2021/12/03 15:30:04;;;;;;;2.63;1.25;;;19.90;36.30;;;;;;5097180;28;20047;-38
2021/12/03 15:56:23;;;;;;;2.60;0.90;;;20.10;36.20;;;;;;5097344;28;20119;-38
2021/12/03 16:04:24;;;;;;;2.53;1.08;;;20.10;36.10;;;;;;5096966;28;20504;-37
2021/12/03 16:48:01;;;;;;;1.50;0.95;;;19.70;37.10;;;;;;4995532;28;20093;-38
2021/12/03 16:53:18;;;;;;;5.82;1.00;;;19.60;37.30;;;;;;5096920;28;20097;-38
2021/12/03 16:55:55;;;;;;;3.42;1.40;;;19.60;37.30;;;;;;5064977;28;20038;-38
2021/12/03 16:58:21;;;;;;;2.90;0.98;;;19.60;37.40;;;;;;5078481;28;20015;-38
2021/12/03 17:14:22;;;;;;;2.70;0.95;;;19.40;37.70;;;;;;5096982;28;20043;-39
2021/12/03 17:47:03;;;;;;;1.10;0.68;;;18.60;39.40;;;;;;5082816;28;20081;-38
2021/12/03 17:57:10;;;;;;;3.17;0.80;;;18.20;40.20;;;;;;5082002;28;20443;-39
2021/12/03 17:59:44;;;;;;;1.23;0.75;;;18.10;40.30;;;;;;5078856;28;20020;-38
2021/12/03 18:02:23;;;;;;;1.67;0.90;;;18.10;40.40;;;;;;5080397;28;20016;-39
2021/12/03 18:12:49;;;;;;;0.95;0.82;;;17.90;40.80;;;;;;5080295;28;20040;-38
2021/12/03 18:18:33;;;;;;;1.27;0.70;;;17.80;41.00;;;;;;5097150;28;20513;-38
2021/12/03 18:56:31;;;;;;;1.35;0.77;;;17.20;42.50;;;;;;5097157;28;20067;-40
2021/12/03 18:58:59;;;;;;;1.90;0.70;;;17.10;42.50;;;;;;5097044;28;20024;-40
2021/12/03 19:01:29;;;;;;;0.95;0.63;;;17.10;42.60;;;;;;5096992;28;20084;-39
2021/12/03 19:06:45;;;;;;;1.37;0.70;;;17.10;42.70;;;;;;5080014;28;20028;-39
2021/12/03 19:09:21;;;;;;;1.95;0.82;;;17.00;42.90;;;;;;5082488;28;20116;-40
2021/12/03 19:14:16;;;;;;;0.85;0.70;;;16.90;43.00;;;;;;5097460;28;20062;-40
2021/12/03 19:16:43;;;;;;;1.00;0.80;;;16.90;43.10;;;;;;5096489;28;20096;-42
2021/12/03 19:19:13;;;;;;;1.45;0.70;;;16.90;43.20;;;;;;5096273;28;20020;-39
2021/12/03 19:21:40;;;;;;;0.77;0.70;;;16.80;43.30;;;;;;5095773;28;20490;-39
2021/12/03 19:24:07;;;;;;;1.23;0.77;;;16.80;43.30;;;;;;5098738;28;20027;-40
2021/12/03 19:26:33;;;;;;;0.90;0.60;;;16.80;43.50;;;;;;5100032;28;20024;-39
2021/12/03 19:29:00;;;;;;;0.95;0.70;;;16.70;43.50;;;;;;5100255;28;20549;-39
2021/12/03 19:31:27;;;;;;;2.35;0.88;;;16.70;43.50;;;;;;5100955;28;20024;-41
2021/12/03 19:33:54;;;;;;;2.03;0.80;;;16.70;43.60;;;;;;5100902;28;20087;-42
2021/12/03 19:36:22;;;;;;;1.05;0.68;;;16.60;43.60;;;;;;5082033;28;20051;-38
2021/12/03 19:38:55;;;;;;;1.15;0.70;;;16.60;43.70;;;;;;5100692;28;20099;-40
2021/12/03 19:41:35;;;;;;;1.23;0.98;;;16.60;43.80;;;;;;5100606;28;20537;-39
2021/12/03 19:44:03;;;;;;;1.00;0.70;;;16.60;43.80;;;;;;5100288;28;20009;-39
2021/12/03 19:46:37;;;;;;;0.98;0.88;;;16.60;43.90;;;;;;5100557;28;20009;-40
2021/12/03 19:49:21;;;;;;;1.70;0.73;;;16.50;43.90;;;;;;5100054;28;20386;-39
2021/12/03 19:51:51;;;;;;;1.75;0.95;;;16.50;43.90;;;;;;5100057;28;20031;-39
2021/12/03 19:54:16;;;;;;;1.70;0.98;;;16.50;44.00;;;;;;5100631;28;20019;-40
2021/12/03 19:56:43;;;;;;;1.15;0.70;;;16.50;44.10;;;;;;5099688;28;20012;-39
2021/12/03 19:59:14;;;;;;;1.00;0.80;;;16.50;44.10;;;;;;5082199;28;20437;-38
2021/12/03 20:01:39;;;;;;;1.00;0.75;;;16.50;44.20;;;;;;5081402;28;20090;-39
2021/12/03 20:04:07;;;;;;;1.10;0.75;;;16.40;44.20;;;;;;5099346;28;20056;-40
2021/12/03 20:06:33;;;;;;;0.98;0.80;;;16.40;44.30;;;;;;5098979;28;20047;-40
2021/12/03 20:09:02;;;;;;;1.10;0.70;;;16.40;44.20;;;;;;5099863;28;20063;-40
2021/12/03 20:11:38;;;;;;;1.08;0.88;;;16.40;44.30;;;;;;5082451;28;20020;-39
2021/12/03 20:14:05;;;;;;;0.93;0.70;;;16.40;44.30;;;;;;5099662;28;20026;-39
2021/12/03 20:16:38;;;;;;;1.35;0.93;;;16.30;44.40;;;;;;5099654;28;20025;-39
2021/12/03 20:19:20;;;;;;;0.70;0.70;;;16.30;44.40;;;;;;5099370;28;20016;-38
2021/12/03 20:21:51;;;;;;;1.38;0.90;;;16.30;44.50;;;;;;5099543;28;20103;-39
2021/12/03 20:24:24;;;;;;;0.80;0.80;;;16.30;44.50;;;;;;5099978;28;20039;-39
2021/12/03 20:26:57;;;;;;;0.93;0.80;;;16.30;44.60;;;;;;5099834;28;20103;-41
2021/12/03 20:29:35;;;;;;;1.52;0.73;;;16.30;44.60;;;;;;5099176;28;20028;-38
2021/12/03 20:35:26;;;;;;;1.13;0.77;;;16.20;44.70;;;;;;5099108;28;20080;-38
2021/12/03 20:37:32;;;;;;;1.20;0.70;;;16.20;44.80;;;;;;5089108;28;20027;-39
2021/12/03 20:40:02;;;;;;;1.45;0.80;;;16.20;44.80;;;;;;5082772;28;20016;-39
2021/12/03 20:42:36;;;;;;;;;;;16.20;44.80;;;;;;5100609;28;20024;-38
2021/12/03 20:48:13;;;;;;;0.90;0.68;;;16.10;44.90;;;;;;5099914;28;20059;-38
2021/12/03 21:09:17;;;;;;;1.08;0.70;;;16.10;45.20;;;;;;5016643;28;20152;-38
2021/12/03 21:11:53;;;;;;;1.15;0.73;;;16.10;45.20;;;;;;5017195;28;20046;-39
2021/12/03 21:14:20;;;;;;;0.88;0.77;;;16.00;45.20;;;;;;5017065;28;20030;-39
2021/12/03 21:17:02;;;;;;;1.30;0.80;;;16.00;45.20;;;;;;5017776;28;20022;-38